Date,TemperatureHighF,TemperatureAvgF,TemperatureLowF,DewpointHighF,DewpointAvgF,DewpointLowF,HumidityHigh,HumidityAvg,HumidityLow,PressureMaxIn,PressureMinIn,WindSpeedMaxMPH,WindSpeedAvgMPH,GustSpeedMaxMPH,PrecipitationSumIn
2012-1-1,44,37,32,42,32,20,97,82,60,0.00,40.00,12,6,31,0.16
2012-1-2,29,21,13,22,12,8,90,71,53,0.00,40.00,11,7,32,0.01
2012-1-3,13,12,10,9,5,0,86,75,54,0.00,40.00,10,8,28,0.00
2012-1-4,30,19,9,23,8,3,93,66,41,0.00,40.00,10,6,21,0.00
2012-1-5,40,33,28,23,18,14,80,56,40,0.00,40.00,9,6,22,0.00
2012-1-6,56,45,36,27,22,19,52,41,29,0.00,40.00,10,8,21,0.00
2012-1-7,48,44,35,43,33,17,92,66,32,0.00,40.00,14,7,30,0.01
2012-1-8,45,35,29,26,21,14,81,59,29,0.00,40.00,4,3,9,0.01
2012-1-9,34,31,29,32,27,19,99,87,56,0.00,40.00,7,4,11,0.00
2012-1-10,43,35,29,28,25,22,87,67,49,0.00,40.00,9,5,23,0.31
2012-1-11,37,34,30,37,31,22,99,87,63,0.00,40.00,6,4,13,0.45
2012-1-12,43,39,31,43,38,28,100,97,87,0.00,40.00,11,7,20,0.30
2012-1-13,27,17,14,24,11,7,88,76,64,0.00,40.00,13,9,32,0.17
2012-1-14,26,19,14,15,12,10,89,75,55,0.00,40.00,10,6,22,0.01
2012-1-15,26,20,16,16,12,8,89,71,53,0.00,40.00,5,4,13,0.01
2012-1-16,38,27,15,29,18,9,92,70,46,0.00,40.00,7,4,14,0.03
2012-1-17,50,40,33,47,36,29,94,84,71,0.00,40.00,12,8,31,0.50
2012-1-18,37,24,17,30,16,8,85,71,60,0.00,40.00,9,6,25,0.04
2012-1-19,33,24,12,17,12,9,89,64,36,0.00,40.00,10,6,21,0.00
2012-1-20,40,32,26,31,22,10,98,68,40,0.00,40.00,9,5,20,0.00
2012-1-21,40,33,31,40,33,30,100,99,96,0.00,40.00,7,4,12,0.69
2012-1-22,31,29,25,31,28,24,100,97,95,0.00,40.00,6,4,11,0.03
2012-1-23,45,38,31,45,38,31,100,100,93,0.00,40.00,10,6,18,0.26
2012-1-24,47,41,36,39,31,26,84,68,44,0.00,40.00,8,6,17,0.20
2012-1-25,52,40,31,30,27,23,85,62,33,0.00,40.00,7,4,14,0.00
2012-1-26,53,47,40,51,40,30,93,78,63,0.00,40.00,11,4,19,0.04
2012-1-27,54,42,29,53,39,24,99,87,77,0.00,40.00,13,9,25,0.42
2012-1-28,41,31,26,33,23,10,93,73,41,0.00,40.00,12,6,31,0.01
2012-1-29,38,29,20,21,11,7,73,48,28,0.00,40.00,12,7,30,0.00
2012-1-30,45,31,20,19,13,7,66,48,34,0.00,40.00,10,6,21,0.00
2012-1-31,60,48,38,23,20,17,45,33,20,0.00,40.00,11,8,25,0.00
2012-2-1,49,46,43,47,39,17,99,79,29,0.00,40.00,9,6,17,0.03
2012-2-2,47,42,33,46,35,26,100,78,48,0.00,40.00,10,6,20,0.21
2012-2-3,51,38,28,27,22,16,85,55,29,0.00,40.00,5,3,8,0.01
2012-2-4,43,38,36,37,28,21,100,69,49,0.00,40.00,5,3,10,0.12
2012-2-5,40,36,28,40,32,22,100,88,57,0.00,40.00,6,4,13,0.09
2012-2-6,47,33,23,31,26,21,94,76,51,0.00,40.00,9,4,17,0.01
2012-2-7,52,37,29,26,23,17,84,61,28,0.00,40.00,9,5,22,0.00
2012-2-8,33,30,25,30,25,23,95,84,66,0.00,40.00,8,4,20,0.10
2012-2-9,34,26,22,21,19,16,88,74,52,0.00,40.00,7,5,17,0.01
2012-2-10,33,27,21,29,24,18,98,88,69,0.00,40.00,7,5,14,0.01
2012-2-11,28,19,5,28,14,0,98,81,60,0.00,40.00,11,7,30,0.01
2012-2-12,21,12,4,10,3,-3,80,68,51,0.00,40.00,11,8,24,0.01
2012-2-13,37,26,16,13,11,7,79,56,31,0.00,40.00,9,5,22,0.04
2012-2-14,39,33,28,34,23,11,99,67,43,0.00,40.00,7,4,12,0.03
2012-2-15,54,39,28,32,26,19,96,63,28,0.00,40.00,7,4,17,0.01
2012-2-16,43,41,37,43,36,25,100,86,50,0.00,40.00,9,6,19,0.61
2012-2-17,42,37,32,38,27,21,89,67,47,0.00,40.00,8,6,17,0.01
2012-2-18,51,38,29,25,21,15,76,53,25,0.00,40.00,13,5,29,0.00
2012-2-19,35,31,27,27,24,21,97,77,58,0.00,40.00,6,4,11,0.00
2012-2-20,45,32,21,26,20,13,95,66,29,0.00,40.00,7,4,12,0.23
2012-2-21,48,36,28,29,23,14,71,61,44,0.00,40.00,9,6,17,0.07
2012-2-22,53,43,36,39,32,26,92,67,39,0.00,40.00,10,8,26,0.02
2012-2-23,54,46,37,46,39,35,99,79,53,0.00,40.00,9,6,17,0.09
2012-2-24,58,46,27,53,40,19,98,78,60,0.00,40.00,14,8,31,0.20
2012-2-25,27,23,19,24,14,7,94,67,49,0.00,40.00,13,9,30,0.02
2012-2-26,47,30,18,19,11,3,67,47,16,0.00,40.00,7,4,14,0.00
2012-2-27,59,44,31,28,21,13,50,41,30,0.00,40.00,11,6,23,0.00
2012-2-28,63,45,30,22,12,-4,54,32,7,0.00,40.00,9,5,18,0.00
2012-2-29,56,48,39,53,42,19,100,83,35,0.00,40.00,13,7,31,1.75
2012-3-1,55,49,42,45,31,26,77,52,34,0.00,40.00,13,9,29,0.81
2012-3-2,45,40,38,41,34,28,100,80,60,0.00,40.00,9,5,18,0.69
2012-3-3,46,41,34,46,25,9,100,60,24,0.00,40.00,12,6,24,0.66
2012-3-4,33,27,23,22,19,14,91,73,54,0.00,40.00,8,5,19,0.06
2012-3-5,28,24,20,23,19,13,95,82,68,0.00,40.00,8,6,22,0.16
2012-3-6,50,33,16,20,16,11,88,54,27,0.00,40.00,7,4,12,0.09
2012-3-7,61,46,35,36,25,15,63,44,29,0.00,40.00,13,7,23,0.00
2012-3-8,63,52,45,48,42,37,98,73,46,0.00,40.00,12,8,25,0.12
2012-3-9,48,37,29,42,23,15,90,61,36,0.00,40.00,11,8,25,0.11
2012-3-10,53,37,22,15,10,-1,71,37,15,0.00,40.00,7,4,17,0.00
2012-3-11,64,48,32,25,17,-100,42,31,19,0.00,40.00,8,5,16,0.00
2012-3-12,60,50,41,50,35,24,95,60,32,0.00,40.00,6,3,12,0.02
2012-3-13,71,59,51,50,46,41,93,66,34,0.00,40.00,11,7,22,0.03
2012-3-14,74,61,49,47,42,33,88,54,23,0.00,40.00,6,4,15,0.01
2012-3-15,60,55,50,48,42,37,83,61,44,0.00,40.00,11,4,24,0.00
2012-3-16,63,56,49,52,49,46,93,78,66,0.00,40.00,6,4,10,0.01
2012-3-17,69,59,50,51,49,46,95,71,43,0.00,40.00,7,5,14,0.01
2012-3-18,67,59,54,53,50,47,92,75,51,0.00,40.00,6,5,12,0.00
2012-3-19,73,60,51,54,51,50,100,77,44,0.00,40.00,8,4,18,0.91
2012-3-20,73,61,54,54,50,-100,93,73,40,0.00,40.00,7,3,15,0.04
2012-3-21,68,57,51,55,53,51,99,88,61,0.00,40.00,8,4,15,0.04
2012-3-23,77,57,54,51,24,-100,76,43,32,0.00,40.00,10,-102,20,0.00
2012-3-24,61,53,47,55,51,45,99,92,70,0.00,40.00,7,4,41,1.46
2012-3-25,56,51,47,50,48,45,99,90,76,0.00,40.00,8,4,14,0.34
2012-3-26,56,48,36,48,31,9,89,57,15,0.00,40.00,12,9,22,0.04
2012-3-27,63,43,25,16,12,3,60,34,13,0.00,40.00,7,4,14,0.00
2012-3-28,74,59,48,54,38,18,87,49,29,0.00,40.00,14,8,33,0.22
2012-3-29,62,53,45,44,33,28,71,47,27,0.00,40.00,9,6,23,0.22
2012-3-30,63,52,43,48,39,31,81,62,52,0.00,40.00,10,5,19,0.04
2012-3-31,59,55,46,49,45,39,83,70,48,0.00,40.00,8,5,20,0.02
2012-4-1,67,51,37,51,38,32,97,66,27,0.00,40.00,12,6,22,0.11
2012-4-2,63,53,46,53,34,15,95,56,21,0.00,40.00,10,6,26,0.16
2012-4-3,75,54,38,36,25,21,57,35,15,0.00,40.00,8,4,17,0.00
2012-4-4,71,60,54,53,47,35,92,65,40,0.00,40.00,9,5,19,0.32
2012-4-5,56,49,41,42,34,27,84,58,36,0.00,40.00,8,4,12,0.09
2012-4-6,54,42,34,36,21,10,80,47,17,0.00,40.00,10,6,18,0.00
2012-4-7,58,44,32,14,10,5,38,26,12,0.00,40.00,9,5,19,0.00
2012-4-8,61,50,40,26,17,10,35,27,20,0.00,40.00,11,6,24,0.00
2012-4-9,58,49,41,33,20,14,55,32,23,0.00,40.00,13,8,37,0.00
2012-4-10,53,46,38,20,14,4,44,28,14,0.00,40.00,15,9,35,0.00
2012-4-11,37,31,28,26,21,16,83,67,49,0.00,40.00,10,6,24,0.00
2012-4-12,51,39,31,25,22,20,73,53,33,0.00,40.00,9,6,17,0.00
2012-4-13,61,48,35,25,22,19,64,39,20,0.00,40.00,6,4,13,0.00
2012-4-14,69,55,43,43,29,-100,58,39,30,0.00,40.00,7,5,14,0.00
2012-4-15,79,66,54,48,41,29,61,43,20,0.00,40.00,8,6,19,0.00
2012-4-16,82,68,57,53,50,45,82,56,28,0.00,40.00,10,7,20,0.00
2012-4-17,63,57,50,49,38,27,79,51,30,0.00,40.00,6,4,19,0.00
2012-4-18,52,45,42,44,40,27,98,88,37,0.00,40.00,5,3,9,0.89
2012-4-19,62,50,43,47,45,42,99,84,56,0.00,40.00,7,3,14,0.04
2012-4-20,72,56,43,49,45,38,99,72,31,0.00,40.00,10,4,19,0.00
2012-4-21,63,53,46,53,47,-100,95,85,59,0.00,40.00,6,5,14,0.09
2012-4-22,47,42,36,42,39,32,94,88,78,0.00,40.00,8,5,15,0.05
2012-4-23,40,35,30,32,27,17,95,76,43,0.00,40.00,10,6,23,0.05
2012-4-24,50,41,31,22,16,12,54,37,23,0.00,40.00,11,7,28,0.03
2012-4-25,61,48,38,43,28,20,94,48,26,0.00,40.00,7,5,20,0.02
2012-4-26,59,51,44,57,50,41,100,94,79,0.00,40.00,9,5,21,0.99
2012-4-27,56,48,38,45,31,23,80,55,29,0.00,40.00,9,5,21,0.04
2012-4-28,52,44,38,45,34,-100,94,70,48,0.00,40.00,7,4,15,0.23
2012-4-29,72,59,47,53,50,45,98,74,45,0.00,40.00,7,4,15,0.27
2012-4-30,75,62,54,58,53,36,90,73,45,0.00,40.00,9,5,17,0.01
2012-5-1,74,65,56,60,55,51,97,74,45,0.00,40.00,11,6,23,0.28
2012-5-2,80,68,56,59,55,50,97,66,35,0.00,40.00,8,4,24,0.06
2012-5-3,85,73,60,58,53,47,83,52,28,0.00,40.00,7,4,15,0.05
2012-5-4,71,65,59,58,54,46,91,71,47,0.00,40.00,7,3,15,0.00
2012-5-5,65,61,58,62,57,-100,99,92,78,0.00,40.00,4,2,8,0.17
2012-5-6,79,64,54,61,58,53,100,84,40,0.00,40.00,6,3,14,0.01
2012-5-7,72,62,58,60,57,55,99,85,60,0.00,40.00,8,6,18,0.00
2012-5-8,66,60,57,62,57,54,98,92,86,0.00,40.00,8,6,15,0.11
2012-5-9,58,53,46,57,50,42,98,89,75,0.00,40.00,5,3,15,0.09
2012-5-10,57,49,44,43,37,33,89,65,43,0.00,40.00,8,5,20,0.01
2012-5-11,67,52,38,34,30,24,79,47,23,0.00,40.00,6,3,12,0.00
2012-5-12,71,55,41,47,38,-100,76,56,35,0.00,40.00,7,3,13,0.00
2012-5-13,67,59,53,54,51,47,97,75,58,0.00,40.00,6,3,12,0.07
2012-5-14,58,56,54,58,56,53,100,99,97,0.00,40.00,5,3,11,1.72
2012-5-15,67,60,54,59,55,53,100,86,67,0.00,40.00,5,2,11,0.02
2012-5-16,74,61,49,55,49,44,99,70,37,0.00,40.00,6,3,14,0.00
2012-5-17,72,61,53,59,52,47,94,73,47,0.00,40.00,4,2,11,0.02
2012-5-18,72,60,47,52,49,46,97,70,45,0.00,40.00,5,3,12,0.02
2012-5-19,76,61,49,50,46,-100,92,62,35,0.00,40.00,6,3,10,0.00
2012-5-20,76,64,51,50,46,41,86,56,32,0.00,40.00,5,3,14,0.00
2012-5-21,77,63,53,59,53,49,96,72,39,0.00,40.00,5,2,10,0.00
2012-5-22,71,60,55,60,57,54,99,91,69,0.00,40.00,4,2,10,0.47
2012-5-23,72,59,55,61,57,54,99,93,62,0.00,40.00,7,2,15,0.06
2012-5-24,67,61,56,62,59,56,100,91,78,0.00,40.00,5,4,11,0.01
2012-5-25,82,69,59,63,59,54,99,74,43,0.00,40.00,4,2,9,0.01
2012-5-26,81,71,60,66,60,-100,95,73,55,0.00,40.00,4,2,10,0.00
2012-5-27,82,70,62,68,63,60,99,82,55,0.00,40.00,5,2,11,0.02
2012-5-28,82,70,61,65,62,61,99,78,51,0.00,40.00,5,3,12,0.02
2012-5-29,77,66,62,63,62,60,99,88,63,0.00,40.00,6,4,15,0.31
2012-5-30,75,66,57,62,55,45,100,71,36,0.00,40.00,7,3,16,0.21
2012-5-31,77,66,55,55,50,43,94,59,31,0.00,40.00,5,3,11,0.02
2012-6-1,67,60,52,61,54,46,97,83,65,0.00,40.00,9,6,26,0.29
2012-6-2,62,53,48,46,40,-100,82,65,47,0.00,40.00,7,4,14,0.05
2012-6-3,68,58,48,49,45,41,79,63,41,0.00,40.00,9,5,21,0.00
2012-6-4,69,59,51,52,47,42,92,67,40,0.00,40.00,6,4,23,0.03
2012-6-5,61,53,44,51,47,43,98,84,59,0.00,40.00,4,2,9,0.03
2012-6-6,59,52,49,54,50,47,99,92,73,0.00,40.00,3,2,9,0.21
2012-6-7,70,58,47,54,49,43,99,76,41,0.00,40.00,4,2,14,0.01
2012-6-8,74,61,47,53,46,44,95,61,35,0.00,40.00,4,3,11,0.00
2012-6-9,80,66,53,55,48,-100,76,56,33,0.00,40.00,4,3,15,0.00
2012-6-10,80,68,54,59,54,49,85,62,42,0.00,40.00,5,3,11,0.00
2012-6-11,69,64,60,64,58,47,98,82,63,0.00,40.00,5,3,13,0.12
2012-6-12,79,68,63,67,63,61,99,88,60,0.00,40.00,7,3,17,0.23
2012-6-13,73,65,56,62,52,39,95,65,30,0.00,40.00,4,3,11,0.02
2012-6-14,73,62,49,53,48,38,81,62,43,0.00,40.00,4,3,12,0.00
2012-6-15,73,64,56,58,54,51,97,72,47,0.00,40.00,5,4,10,0.00
2012-6-16,73,61,53,53,49,-100,94,71,41,0.00,40.00,5,3,12,0.00
2012-6-17,74,62,53,60,56,51,97,80,59,0.00,40.00,5,3,10,0.26
2012-6-18,74,65,58,65,62,58,99,90,72,0.00,40.00,6,2,12,0.54
2012-6-19,84,72,63,66,63,60,99,75,48,0.00,40.00,3,2,9,0.01
2012-6-20,88,76,63,67,63,60,97,67,40,0.00,40.00,4,2,7,0.00
2012-6-21,84,72,64,72,66,59,97,82,53,0.00,40.00,4,1,14,0.70
2012-6-22,80,69,63,67,63,59,99,83,50,0.00,40.00,5,3,14,0.40
2012-6-23,80,68,58,62,56,49,98,69,42,0.00,40.00,3,2,6,0.00
2012-6-24,81,69,58,59,54,51,82,62,40,0.00,40.00,4,2,9,0.00
2012-6-25,74,67,59,58,53,44,81,62,45,0.00,40.00,8,4,15,0.00
2012-6-26,69,58,48,47,42,40,75,56,38,0.00,40.00,6,4,14,0.00
2012-6-27,77,63,49,49,46,41,79,55,35,0.00,40.00,6,3,12,0.00
2012-6-28,88,72,58,62,53,48,72,53,32,0.00,40.00,7,4,16,0.00
2012-6-29,94,80,61,69,61,54,98,54,37,0.00,40.00,10,5,36,0.49
2012-6-30,88,77,59,66,62,58,98,62,36,0.00,40.00,8,4,17,0.49
2012-7-1,86,76,68,67,63,58,86,67,43,0.00,40.00,8,3,20,0.00
2012-7-2,83,72,61,62,59,57,93,66,45,0.00,40.00,5,3,13,0.03
2012-7-3,87,72,62,66,61,59,93,70,41,0.00,40.00,6,2,13,0.00
2012-7-4,88,76,64,66,63,59,96,68,38,0.00,40.00,5,3,11,0.00
2012-7-5,89,77,69,67,62,57,83,62,35,0.00,40.00,5,3,12,0.15
2012-7-6,89,77,67,70,64,61,87,67,41,0.00,40.00,5,2,12,0.15
2012-7-7,91,79,67,68,65,62,94,66,40,0.00,40.00,5,2,13,0.00
2012-7-8,92,80,72,69,65,63,86,63,38,0.00,40.00,6,3,15,0.00
2012-7-9,81,72,66,68,63,57,96,75,52,0.00,40.00,4,2,9,0.03
2012-7-10,83,72,62,60,54,47,91,57,29,0.00,40.00,3,2,8,0.00
2012-7-11,80,70,62,61,58,54,87,67,41,0.00,40.00,7,3,15,0.00
2012-7-12,79,68,60,60,54,47,97,65,36,0.00,40.00,6,3,15,0.00
2012-7-13,62,60,57,61,58,56,99,95,81,0.00,40.00,3,2,10,0.37
2012-7-14,81,67,58,69,62,55,98,86,61,0.00,40.00,7,3,16,0.54
2012-7-15,82,70,63,69,66,63,99,87,65,0.00,40.00,5,3,16,0.48
2012-7-16,83,74,64,68,64,61,96,75,51,0.00,40.00,6,4,14,0.47
2012-7-17,88,77,67,67,63,58,93,66,37,0.00,40.00,4,3,9,0.01
2012-7-18,85,72,65,70,66,62,92,81,62,0.00,40.00,7,3,15,0.01
2012-7-19,87,71,63,68,63,59,95,77,47,0.00,40.00,5,3,20,0.01
2012-7-20,73,67,63,68,65,62,99,95,82,0.00,40.00,5,3,10,0.22
2012-7-21,76,69,64,69,65,63,99,88,67,0.00,40.00,5,3,15,0.06
2012-7-22,84,72,63,67,61,52,99,73,35,0.00,40.00,5,3,10,0.03
2012-7-23,78,70,65,68,65,57,96,82,71,0.00,40.00,6,3,17,0.09
2012-7-24,76,70,65,71,67,61,96,88,77,0.00,40.00,9,5,23,0.98
2012-7-25,84,71,61,64,62,60,97,75,44,0.00,40.00,5,3,12,0.32
2012-7-26,87,77,68,70,66,61,95,71,46,0.00,40.00,7,5,15,0.00
2012-7-27,76,68,64,68,64,62,97,88,72,0.00,40.00,5,3,17,1.15
2012-7-28,79,70,63,66,62,58,99,78,51,0.00,40.00,6,4,12,0.09
2012-7-29,79,68,59,61,59,55,97,76,44,0.00,40.00,4,2,7,0.00
2012-7-30,78,68,62,64,61,58,95,78,57,0.00,40.00,5,2,11,0.31
2012-7-31,78,66,60,67,62,59,98,90,63,0.00,40.00,7,2,15,1.56
2012-8-1,82,67,58,68,61,58,99,84,51,0.00,40.00,6,2,14,1.54
2012-8-2,84,74,63,66,61,53,97,66,39,0.00,40.00,3,2,8,0.01
2012-8-3,83,72,64,68,64,60,93,77,56,0.00,40.00,5,3,11,0.00
2012-8-4,77,71,66,68,66,65,97,87,68,0.00,40.00,7,4,20,0.09
2012-8-5,79,71,65,69,66,64,98,86,71,0.00,40.00,6,4,16,1.40
2012-8-6,77,68,64,70,66,63,99,92,74,0.00,40.00,4,2,8,1.54
2012-8-7,79,69,61,66,63,61,99,83,62,0.00,40.00,3,1,6,0.02
2012-8-8,84,72,60,65,60,55,97,70,39,0.00,40.00,3,2,9,0.00
2012-8-9,82,71,61,68,62,59,97,75,52,0.00,40.00,6,3,12,0.00
2012-8-10,74,67,62,66,63,61,99,88,73,0.00,40.00,6,4,18,0.15
2012-8-11,76,64,57,60,54,-100,95,73,46,0.00,40.00,5,4,14,0.03
2012-8-12,74,64,54,56,53,50,92,70,44,0.00,40.00,4,3,12,0.00
2012-8-13,79,65,53,60,56,52,97,75,48,0.00,40.00,4,3,13,0.00
2012-8-14,79,68,61,64,62,58,98,82,58,0.00,40.00,6,3,11,0.02
2012-8-15,69,64,60,62,60,56,97,86,73,0.00,40.00,5,3,11,0.01
2012-8-16,78,65,55,60,56,54,97,75,43,0.00,40.00,4,2,9,0.00
2012-8-17,73,64,58,64,59,55,93,84,66,0.00,40.00,4,3,10,0.03
2012-8-18,75,64,53,58,55,51,98,77,46,0.00,40.00,4,2,9,0.02
2012-8-19,68,60,55,58,56,54,97,87,68,0.00,40.00,6,3,12,1.06
2012-8-20,71,61,56,61,55,48,99,83,53,0.00,40.00,5,2,11,0.13
2012-8-21,74,62,50,58,52,45,98,73,40,0.00,40.00,3,2,7,0.09
2012-8-22,77,65,54,61,53,50,90,69,39,0.00,40.00,4,2,8,0.00
2012-8-23,79,66,58,61,57,53,96,76,48,0.00,40.00,5,3,10,0.00
2012-8-24,78,64,55,61,57,54,98,81,49,0.00,40.00,4,2,10,0.00
2012-8-25,72,63,57,61,56,51,97,79,60,0.00,40.00,4,3,10,0.00
2012-8-26,74,65,60,64,60,54,97,86,65,0.00,40.00,4,3,8,0.06
2012-8-27,82,69,58,65,61,57,98,78,43,0.00,40.00,5,3,10,0.01
2012-8-28,80,71,64,63,58,52,91,68,40,0.00,40.00,5,4,11,0.00
2012-8-29,78,66,55,58,55,53,96,72,43,0.00,40.00,4,2,11,0.00
2012-8-30,83,68,56,62,56,49,90,67,32,0.00,40.00,5,3,11,0.00
2012-8-31,84,73,62,66,62,54,85,69,50,0.00,40.00,5,4,14,0.00
2012-9-1,80,71,67,70,67,63,98,86,70,0.00,40.00,4,2,11,0.10
2012-9-2,82,70,65,70,66,65,99,91,65,0.00,40.00,6,2,12,1.21
2012-9-3,75,68,65,68,66,64,98,92,80,0.00,40.00,6,3,12,0.09
2012-9-4,77,69,66,68,66,65,98,91,74,0.00,40.00,6,4,12,0.81
2012-9-5,81,70,66,70,68,66,99,92,60,0.00,40.00,4,2,8,1.11
2012-9-6,82,70,63,67,64,61,99,82,49,0.00,40.00,4,2,8,0.47
2012-9-7,83,70,61,64,62,59,98,78,45,0.00,40.00,5,3,11,0.07
2012-9-8,69,61,51,65,59,46,97,91,82,0.00,40.00,6,4,16,0.31
2012-9-9,65,54,45,53,47,43,98,79,45,0.00,40.00,5,3,14,0.04
2012-9-10,65,55,48,51,44,36,97,69,35,0.00,40.00,4,2,11,0.00
2012-9-11,71,56,42,49,45,41,95,69,44,0.00,40.00,5,3,10,0.00
2012-9-12,77,61,49,55,51,47,95,71,41,0.00,40.00,5,3,9,0.00
2012-9-13,76,61,51,55,49,40,97,69,29,0.00,40.00,5,3,9,0.00
2012-9-14,76,62,50,56,51,48,93,69,43,0.00,40.00,4,3,11,0.00
2012-9-15,72,62,53,56,50,43,92,69,41,0.00,40.00,4,2,9,0.00
2012-9-16,69,57,48,55,49,44,91,77,59,0.00,40.00,4,2,7,0.00
2012-9-17,68,58,51,60,56,50,98,92,74,0.00,40.00,5,3,12,0.28
2012-9-18,62,60,51,62,59,49,99,98,89,0.00,40.00,8,5,17,2.79
2012-9-19,63,53,45,47,42,33,96,70,35,0.00,40.00,3,2,9,0.04
2012-9-20,71,57,47,54,50,42,95,79,49,0.00,40.00,6,3,11,0.00
2012-9-21,74,62,54,55,53,51,98,76,44,0.00,40.00,7,4,12,0.00
2012-9-22,70,61,55,55,49,-100,87,68,47,0.00,40.00,13,6,20,0.00
2012-9-23,60,47,36,40,34,29,90,63,32,0.00,40.00,7,3,17,0.00
2012-9-24,64,49,37,38,33,27,90,60,27,0.00,40.00,5,3,10,0.00
2012-9-25,64,50,43,50,43,35,98,78,55,0.00,40.00,5,3,14,0.14
2012-9-26,73,61,49,58,54,48,98,80,55,0.00,40.00,7,4,19,0.01
2012-9-27,73,64,59,59,56,54,91,76,55,0.00,40.00,4,3,10,0.01
2012-9-28,61,59,57,60,58,56,98,97,88,0.00,40.00,5,3,10,0.42
2012-9-29,65,55,45,55,48,41,99,81,47,0.00,40.00,4,2,12,0.04
2012-9-30,64,50,40,46,42,39,97,76,42,0.00,40.00,6,3,14,0.00
2012-10-1,56,50,46,51,48,44,98,92,77,0.00,40.00,4,3,11,0.13
2012-10-2,67,59,52,64,59,52,99,98,90,0.00,40.00,8,3,15,0.83
2012-10-3,76,64,58,61,59,55,98,84,53,0.00,40.00,5,3,10,0.01
2012-10-4,69,61,55,61,53,45,98,75,48,0.00,40.00,7,3,14,0.01
2012-10-5,73,60,50,53,50,48,95,72,46,0.00,40.00,6,3,11,0.00
2012-10-6,59,51,40,54,45,36,88,79,61,0.00,40.00,7,4,16,0.00
2012-10-7,42,39,36,41,38,34,97,94,87,0.00,40.00,4,2,10,0.29
2012-10-8,38,36,35,37,35,32,98,95,87,0.00,40.00,3,2,8,0.30
2012-10-9,52,43,36,44,40,35,98,88,69,0.00,40.00,5,2,10,0.02
2012-10-10,55,47,41,43,40,33,97,78,59,0.00,40.00,10,6,21,0.01
2012-10-11,64,46,31,32,26,14,79,50,15,0.00,40.00,6,4,17,0.01
2012-10-12,59,48,41,38,33,29,84,58,37,0.00,40.00,7,4,16,0.00
2012-10-13,62,47,35,38,36,31,92,67,40,0.00,40.00,6,3,15,0.00
2012-10-14,74,55,43,51,45,38,88,71,41,0.00,40.00,7,4,14,0.00
2012-10-15,62,54,44,54,47,37,100,80,49,0.00,40.00,9,6,21,0.04
2012-10-16,60,48,41,38,34,28,78,59,30,0.00,40.00,6,4,16,0.01
2012-10-17,68,51,36,42,34,25,83,55,20,0.00,40.00,8,4,14,0.00
2012-10-18,60,51,45,51,45,41,100,82,68,0.00,40.00,11,6,22,0.44
2012-10-19,62,52,43,47,38,27,98,65,31,0.00,40.00,7,4,15,0.44
2012-10-20,53,45,41,37,33,30,76,64,42,0.00,40.00,8,5,20,0.00
2012-10-21,59,46,39,35,34,31,85,64,35,0.00,40.00,6,4,14,0.00
2012-10-22,73,56,44,46,40,32,78,57,35,0.00,40.00,4,3,10,0.00
2012-10-23,77,61,51,50,47,44,84,62,38,0.00,40.00,5,3,11,0.00
2012-10-24,75,64,56,49,46,41,74,54,32,0.00,40.00,5,3,17,0.00
2012-10-25,76,63,54,46,43,39,70,51,28,0.00,40.00,8,5,18,0.00
2012-10-26,75,61,54,53,50,45,92,68,35,0.00,40.00,8,4,13,0.00
2012-10-27,57,52,46,55,51,45,100,96,88,0.00,40.00,5,3,10,0.14
2012-10-28,48,44,37,45,42,37,100,93,81,0.00,40.00,7,5,13,0.11
2012-10-29,37,33,30,37,31,29,99,96,87,0.00,40.00,10,7,26,0.25
2012-10-30,31,29,27,29,25,23,98,88,78,0.00,40.00,13,9,30,0.01
2012-10-31,37,33,31,29,28,26,91,82,74,0.00,40.00,10,6,25,0.08
2012-11-1,39,34,32,31,28,22,87,79,55,0.00,40.00,9,5,23,0.04
2012-11-2,42,36,32,29,24,20,88,62,43,0.00,40.00,10,6,25,0.00
2012-11-3,39,33,29,30,26,24,94,77,64,0.00,40.00,7,5,16,0.03
2012-11-4,46,36,31,33,28,24,98,78,44,0.00,40.00,7,4,12,0.03
2012-11-5,45,33,25,24,22,20,83,66,40,0.00,40.00,8,4,13,0.01
2012-11-6,45,32,26,27,24,22,85,71,48,0.00,40.00,8,3,12,0.00
2012-11-7,40,33,27,28,24,19,88,72,46,0.00,40.00,7,3,14,0.00
2012-11-8,43,34,28,25,19,13,77,57,29,0.00,40.00,7,5,15,0.00
2012-11-9,59,43,32,30,24,16,81,52,24,0.00,40.00,8,5,15,0.00
2012-11-10,67,52,37,32,25,16,47,35,26,0.00,40.00,6,4,10,0.00
2012-11-11,69,56,47,42,31,27,65,41,21,0.00,40.00,9,5,19,0.00
2012-11-12,58,52,37,53,47,36,97,83,68,0.00,40.00,12,9,24,0.35
2012-11-13,40,32,26,35,24,21,96,74,47,0.00,40.00,7,5,16,0.43
2012-11-14,44,31,23,24,21,-100,88,69,44,0.00,40.00,8,5,12,0.01
2012-11-15,46,34,26,26,23,20,86,65,37,0.00,40.00,4,3,7,0.00
2012-11-16,53,38,30,26,23,16,79,57,24,0.00,40.00,7,5,9,0.00
2012-11-17,55,41,31,24,20,18,68,47,25,0.00,40.00,6,4,13,0.00
2012-11-18,52,41,34,31,23,17,76,49,33,0.00,40.00,6,4,12,0.00
2012-11-19,53,41,32,33,29,23,89,66,42,0.00,40.00,4,3,8,0.00
2012-11-20,56,43,35,34,28,23,74,57,34,0.00,40.00,5,3,9,0.00
2012-11-21,58,44,36,26,22,15,63,43,20,0.00,40.00,8,5,11,0.00
2012-11-22,60,46,34,26,23,21,61,40,22,0.00,40.00,6,4,9,0.00
2012-11-23,58,44,31,41,30,22,82,58,43,0.00,40.00,11,7,31,0.00
2012-11-24,29,23,20,21,15,13,83,72,65,0.00,40.00,11,7,29,0.00
2012-11-25,45,31,19,15,12,9,79,51,24,0.00,40.00,10,6,21,0.00
2012-11-26,46,38,35,22,16,13,48,41,32,0.00,40.00,9,6,17,0.00
2012-11-27,37,34,30,37,33,26,100,94,86,0.00,40.00,6,3,10,0.23
2012-11-28,35,29,26,27,21,19,88,72,53,0.00,40.00,9,5,21,0.02
2012-11-29,47,33,24,22,20,18,83,60,34,0.00,40.00,6,4,11,0.00
2012-11-30,53,43,32,28,23,17,62,46,37,0.00,40.00,6,4,11,0.00
2012-12-1,57,46,37,39,33,25,79,62,48,0.00,40.00,6,4,10,0.00
2012-12-2,58,48,42,48,41,37,91,77,52,0.00,40.00,8,5,15,0.03
2012-12-3,61,55,52,54,50,47,89,84,74,0.00,40.00,7,4,13,0.04
2012-12-4,63,55,49,49,47,46,96,77,55,0.00,40.00,9,5,19,0.01
2012-12-5,55,43,32,49,32,25,89,68,41,0.00,40.00,9,6,22,0.00
2012-12-6,46,35,27,31,25,-100,93,73,48,0.00,40.00,6,3,11,0.00
2012-12-7,54,44,35,45,39,33,97,85,67,0.00,40.00,8,4,15,0.03
2012-12-8,59,51,48,48,46,44,93,83,58,0.00,40.00,8,6,18,0.01
2012-12-9,54,50,48,53,50,48,100,98,92,0.00,40.00,7,4,14,0.31
2012-12-10,52,47,34,51,46,32,100,97,92,0.00,40.00,9,7,19,0.32
2012-12-11,34,29,23,31,26,19,95,87,79,0.00,40.00,6,4,12,0.07
2012-12-12,34,28,23,27,23,18,93,81,63,0.00,40.00,5,3,8,0.01
2012-12-13,46,32,23,21,16,12,71,52,28,0.00,40.00,5,4,10,0.00
2012-12-14,52,38,28,24,18,12,66,47,20,0.00,40.00,5,3,9,0.00
2012-12-15,51,41,34,32,18,12,80,40,24,0.00,40.00,7,4,14,0.02
2012-12-16,47,41,36,46,40,31,100,96,76,0.00,40.00,7,4,13,0.07
2012-12-17,47,45,42,45,44,42,100,95,89,0.00,40.00,11,4,18,0.27
2012-12-18,42,37,31,40,34,28,97,90,82,0.00,40.00,9,6,19,0.29
2012-12-19,46,39,30,34,30,25,84,70,52,0.00,40.00,12,6,33,0.01
2012-12-20,38,34,32,38,31,27,100,89,73,0.00,40.00,9,6,19,0.73
2012-12-21,38,24,20,38,20,16,100,84,75,0.00,40.00,14,10,32,0.60
2012-12-22,26,22,19,19,16,13,89,79,69,0.00,40.00,15,10,44,0.00
2012-12-23,44,33,20,23,17,5,76,53,42,0.00,40.00,8,6,17,0.00
2012-12-24,39,32,29,36,29,22,100,89,60,0.00,40.00,8,4,18,0.25
2012-12-25,41,38,34,35,32,30,95,80,66,0.00,40.00,7,4,15,0.15
2012-12-26,33,30,28,32,30,27,100,97,89,0.00,40.00,8,5,22,0.00
2012-12-27,32,23,21,30,20,18,94,88,82,0.00,40.00,12,9,30,0.00
2012-12-28,36,27,20,23,21,19,94,79,57,0.00,40.00,6,4,13,0.14
2012-12-29,33,28,22,31,25,20,98,91,79,0.00,40.00,11,7,24,0.03
2012-12-30,24,20,17,20,15,12,92,81,70,0.00,40.00,10,8,26,0.01
2012-12-31,39,27,17,17,12,8,82,56,29,0.00,40.00,9,6,21,0.08
2013-1-1,34,31,28,31,26,15,97,86,46,0.00,40.00,10,5,25,0.03